Time;durP1;ratioP1;P1;durP2;ratioP2;P2;SDS_P1;SDS_P2;PMS_P1;PMS_P2;Temp;Humidity;BMP_temperature;BMP_pressure;BME280_temperature;BME280_humidity;BME280_pressure;Samples;Min_cycle;Max_cycle;Signal;HPM_P1;HPM_P2
2022/09/24 00:01:11;;;;;;;9.30;2.80;;;20.60;71.80;;;;;;5080371;28;20031;-70
2022/09/24 00:03:37;;;;;;;7.88;2.88;;;20.60;71.80;;;;;;5079299;28;20012;-70
2022/09/24 00:06:03;;;;;;;8.32;3.30;;;20.50;71.90;;;;;;5080195;28;20043;-70
2022/09/24 00:08:28;;;;;;;4.35;3.00;;;20.60;71.80;;;;;;5079726;28;20072;-70
2022/09/24 00:10:56;;;;;;;7.38;2.72;;;20.60;72.00;;;;;;5088603;28;20031;-70
2022/09/24 00:13:21;;;;;;;18.48;3.10;;;20.60;72.00;;;;;;5070704;28;20016;-70
2022/09/24 00:15:48;;;;;;;5.95;2.90;;;20.60;71.90;;;;;;5069621;28;20115;-70
2022/09/24 00:18:14;;;;;;;6.22;2.53;;;20.50;71.90;;;;;;5070816;28;20396;-70
2022/09/24 00:20:40;;;;;;;6.78;2.60;;;20.50;71.80;;;;;;5070877;28;20138;-70
2022/09/24 00:23:06;;;;;;;8.05;3.17;;;20.60;71.90;;;;;;5084551;28;20086;-70
2022/09/24 00:28:16;;;;;;;4.50;2.85;;;20.60;72.00;;;;;;5110525;28;20023;-71
2022/09/24 00:30:42;;;;;;;6.82;3.25;;;20.50;72.00;;;;;;5111587;28;20023;-71
2022/09/24 00:33:08;;;;;;;4.85;2.67;;;20.50;71.90;;;;;;5112626;28;20019;-71
2022/09/24 00:35:35;;;;;;;7.25;3.05;;;20.50;72.10;;;;;;5111742;28;20058;-71
2022/09/24 00:38:01;;;;;;;3.95;2.65;;;20.50;72.00;;;;;;5111333;28;20034;-71
2022/09/24 00:40:34;;;;;;;14.38;2.85;;;20.50;72.00;;;;;;5111258;28;20110;-71
2022/09/24 00:43:00;;;;;;;7.07;2.92;;;20.50;72.00;;;;;;5111136;28;20015;-71
2022/09/24 00:45:28;;;;;;;8.10;3.13;;;20.50;72.10;;;;;;5111632;28;20058;-71
2022/09/24 00:47:54;;;;;;;9.77;2.70;;;20.50;72.00;;;;;;5094816;28;20051;-71
2022/09/24 00:50:25;;;;;;;5.13;2.55;;;20.50;72.00;;;;;;5111245;28;20071;-71
2022/09/24 00:52:54;;;;;;;4.95;2.80;;;20.50;72.00;;;;;;5095276;28;20050;-70
2022/09/24 00:55:20;;;;;;;7.00;2.80;;;20.50;72.20;;;;;;5112127;28;20257;-70
2022/09/24 00:57:47;;;;;;;7.90;2.90;;;20.50;72.20;;;;;;5111247;28;20114;-70
2022/09/24 01:00:14;;;;;;;4.55;2.70;;;20.50;72.10;;;;;;5111284;28;20081;-70
2022/09/24 01:02:41;;;;;;;5.53;2.88;;;20.50;72.20;;;;;;5112536;28;20011;-70
2022/09/24 01:05:09;;;;;;;9.95;2.55;;;20.50;72.10;;;;;;5094416;28;20023;-70
2022/09/24 01:07:34;;;;;;;6.15;2.78;;;20.50;72.00;;;;;;5112446;28;20042;-70
2022/09/24 01:10:00;;;;;;;5.60;2.40;;;20.50;71.90;;;;;;5112198;28;20047;-70
2022/09/24 01:12:39;;;;;;;6.95;2.47;;;20.50;72.00;;;;;;5112694;28;20088;-70
2022/09/24 01:15:14;;;;;;;7.28;2.78;;;20.50;72.00;;;;;;5106623;28;20047;-70
2022/09/24 01:18:05;;;;;;;6.65;2.60;;;20.50;72.10;;;;;;5070679;28;20086;-70
2022/09/24 01:20:39;;;;;;;6.07;2.80;;;20.50;72.10;;;;;;5070491;28;20021;-70
2022/09/24 01:23:23;;;;;;;4.07;2.22;;;20.50;72.20;;;;;;5086250;28;20154;-70
2022/09/24 01:26:00;;;;;;;5.38;2.80;;;20.50;72.00;;;;;;5112457;28;20027;-70
2022/09/24 01:28:34;;;;;;;7.22;2.67;;;20.50;72.00;;;;;;5112191;28;20097;-70
2022/09/24 01:31:04;;;;;;;6.15;2.60;;;20.50;72.00;;;;;;5113909;28;20023;-70
2022/09/24 01:33:31;;;;;;;5.90;2.55;;;20.50;72.20;;;;;;5098101;28;20022;-70
2022/09/24 01:36:05;;;;;;;5.95;2.70;;;20.50;72.00;;;;;;5114790;28;20085;-70
2022/09/24 01:38:37;;;;;;;5.53;2.47;;;20.40;72.10;;;;;;5098210;28;20024;-70
2022/09/24 01:41:03;;;;;;;4.85;2.47;;;20.40;72.10;;;;;;5098451;28;20566;-70
2022/09/24 01:43:29;;;;;;;4.60;2.28;;;20.40;72.10;;;;;;5114658;28;20099;-70
2022/09/24 01:45:57;;;;;;;5.43;2.40;;;20.40;72.20;;;;;;5115832;28;20077;-70
2022/09/24 01:48:23;;;;;;;5.93;2.58;;;20.40;72.30;;;;;;5114653;28;20027;-70
2022/09/24 01:50:57;;;;;;;5.93;2.47;;;20.40;72.10;;;;;;5097530;28;20055;-70
2022/09/24 01:53:30;;;;;;;5.10;2.33;;;20.40;72.10;;;;;;5097738;28;20027;-70
2022/09/24 01:56:18;;;;;;;4.57;2.72;;;20.50;72.20;;;;;;5097939;28;20047;-70
2022/09/24 01:58:47;;;;;;;6.20;2.85;;;20.50;72.30;;;;;;5114041;28;20043;-70
2022/09/24 02:01:16;;;;;;;5.40;2.47;;;20.40;72.40;;;;;;5115366;28;20012;-70
2022/09/24 02:03:46;;;;;;;5.20;2.33;;;20.40;72.50;;;;;;5114105;28;20081;-70
2022/09/24 02:06:41;;;;;;;5.93;2.20;;;20.40;73.50;;;;;;5097340;28;20031;-70
2022/09/24 02:09:34;;;;;;;5.75;2.65;;;20.40;72.60;;;;;;5099765;28;20074;-70
2022/09/24 02:12:06;;;;;;;7.55;2.47;;;20.40;72.70;;;;;;5114237;28;20026;-70
2022/09/24 02:14:31;;;;;;;5.70;2.05;;;20.40;72.70;;;;;;5097806;28;20032;-70
2022/09/24 02:16:57;;;;;;;2.85;2.08;;;20.40;72.60;;;;;;5077835;28;20047;-70
2022/09/24 02:19:25;;;;;;;4.80;2.30;;;20.40;72.70;;;;;;5073379;28;20028;-70
2022/09/24 02:21:50;;;;;;;2.83;2.15;;;20.40;72.80;;;;;;5072959;28;20050;-70
2022/09/24 02:24:19;;;;;;;5.82;2.40;;;20.40;72.90;;;;;;5108034;28;20019;-70
2022/09/24 02:26:44;;;;;;;4.15;2.28;;;20.40;73.00;;;;;;5097032;28;20022;-70
2022/09/24 02:29:11;;;;;;;2.40;2.20;;;20.40;73.10;;;;;;5096724;28;20107;-70
2022/09/24 02:31:38;;;;;;;4.82;2.53;;;20.40;72.70;;;;;;5113787;28;20024;-70
2022/09/24 02:34:21;;;;;;;4.15;2.13;;;20.40;72.90;;;;;;5113455;28;20024;-70
2022/09/24 02:36:48;;;;;;;4.55;2.30;;;20.40;72.90;;;;;;5099047;28;20047;-70
2022/09/24 02:39:13;;;;;;;5.63;2.28;;;20.40;73.00;;;;;;5114496;28;20030;-70
2022/09/24 02:41:41;;;;;;;3.65;2.30;;;20.40;73.10;;;;;;5113406;28;20094;-70
2022/09/24 02:44:07;;;;;;;6.88;2.03;;;20.40;73.20;;;;;;5113612;28;20052;-70
2022/09/24 02:46:32;;;;;;;5.20;2.28;;;20.40;73.40;;;;;;5114452;28;20103;-70
2022/09/24 02:48:58;;;;;;;5.95;2.47;;;20.40;73.40;;;;;;5113212;28;20020;-70
2022/09/24 02:51:24;;;;;;;5.00;2.30;;;20.40;73.50;;;;;;5114215;28;20392;-70
2022/09/24 02:53:50;;;;;;;4.80;2.20;;;20.40;73.40;;;;;;5114494;28;20079;-70
2022/09/24 02:56:15;;;;;;;5.05;2.60;;;20.40;73.40;;;;;;5114408;28;20055;-70
2022/09/24 02:58:42;;;;;;;3.92;2.17;;;20.40;73.20;;;;;;5114217;28;20411;-70
2022/09/24 03:01:07;;;;;;;5.93;2.30;;;20.40;73.40;;;;;;5114147;28;20015;-70
2022/09/24 03:03:33;;;;;;;6.45;2.13;;;20.40;73.50;;;;;;5114271;28;20022;-70
2022/09/24 03:05:59;;;;;;;2.75;2.15;;;20.40;73.80;;;;;;5112672;28;20034;-70
2022/09/24 03:08:25;;;;;;;2.88;2.05;;;20.40;73.70;;;;;;5112927;28;20016;-70
2022/09/24 03:10:50;;;;;;;2.78;1.88;;;20.40;73.60;;;;;;5114572;28;20020;-70
2022/09/24 03:13:17;;;;;;;5.15;2.33;;;20.40;73.40;;;;;;5112688;28;20098;-70
2022/09/24 03:15:45;;;;;;;3.13;2.00;;;20.40;73.30;;;;;;5099106;28;20028;-70
2022/09/24 03:18:11;;;;;;;7.07;2.40;;;20.40;73.40;;;;;;5073287;28;20532;-70
2022/09/24 03:20:37;;;;;;;7.10;2.40;;;20.40;73.50;;;;;;5073053;28;20028;-70
2022/09/24 03:23:03;;;;;;;8.23;2.47;;;20.40;73.70;;;;;;5087365;28;20099;-70
2022/09/24 03:25:28;;;;;;;5.63;2.20;;;20.40;73.70;;;;;;5113999;28;20414;-70
2022/09/24 03:27:54;;;;;;;5.60;2.17;;;20.40;73.70;;;;;;5095682;28;20020;-70
2022/09/24 03:33:04;;;;;;;6.00;2.42;;;20.40;73.80;;;;;;5113591;28;20045;-70
2022/09/24 03:35:29;;;;;;;7.65;2.15;;;20.40;73.70;;;;;;5112329;28;20031;-70
2022/09/24 03:37:55;;;;;;;4.38;2.00;;;20.40;73.70;;;;;;5112538;28;20068;-70
2022/09/24 03:40:21;;;;;;;6.22;2.75;;;20.40;73.70;;;;;;5112123;28;20083;-70
2022/09/24 03:42:46;;;;;;;3.33;2.10;;;20.40;73.70;;;;;;5113658;28;20099;-70
2022/09/24 03:45:12;;;;;;;3.63;1.92;;;20.40;73.70;;;;;;5112170;28;20509;-70
2022/09/24 03:47:39;;;;;;;3.17;1.77;;;20.40;73.80;;;;;;5113630;28;20043;-70
2022/09/24 03:50:05;;;;;;;4.03;2.15;;;20.40;73.80;;;;;;5111572;28;20465;-70
2022/09/24 03:52:30;;;;;;;5.20;2.10;;;20.40;73.60;;;;;;5113164;28;20024;-70
2022/09/24 03:54:56;;;;;;;4.07;2.20;;;20.40;73.40;;;;;;5112971;28;20502;-70
2022/09/24 03:57:22;;;;;;;3.80;2.13;;;20.30;73.50;;;;;;5113278;28;20024;-70
2022/09/24 03:59:47;;;;;;;3.72;2.00;;;20.30;73.70;;;;;;5113257;28;20493;-70
2022/09/24 04:02:13;;;;;;;3.20;2.03;;;20.30;73.50;;;;;;5113111;28;20035;-70
2022/09/24 04:04:39;;;;;;;4.88;2.40;;;20.40;73.70;;;;;;5111700;28;20026;-70
2022/09/24 04:07:04;;;;;;;4.55;1.83;;;20.40;73.60;;;;;;5113203;28;20475;-70
2022/09/24 04:09:30;;;;;;;3.65;2.10;;;20.30;73.50;;;;;;5111979;28;20031;-70
2022/09/24 04:11:56;;;;;;;2.58;1.88;;;20.30;73.60;;;;;;5112915;28;20026;-70
2022/09/24 04:14:22;;;;;;;4.18;1.80;;;20.30;73.60;;;;;;5112923;28;20027;-70
2022/09/24 04:16:47;;;;;;;2.72;1.67;;;20.40;73.40;;;;;;5078682;28;20382;-70
2022/09/24 04:19:17;;;;;;;7.03;2.00;;;20.40;73.40;;;;;;5071933;28;20071;-70
2022/09/24 04:21:46;;;;;;;3.97;1.38;;;20.30;73.50;;;;;;5072450;28;20366;-70
2022/09/24 04:24:12;;;;;;;3.42;2.03;;;20.30;73.50;;;;;;5105680;28;20080;-70
2022/09/24 04:26:38;;;;;;;4.80;2.35;;;20.30;73.50;;;;;;5094753;28;20114;-70
2022/09/24 04:29:04;;;;;;;4.03;1.70;;;20.40;73.50;;;;;;5113039;28;20035;-70
2022/09/24 04:31:31;;;;;;;5.25;2.00;;;20.30;73.60;;;;;;5112584;28;20098;-70
2022/09/24 04:33:57;;;;;;;3.53;2.00;;;20.30;73.30;;;;;;5112658;28;20024;-70
2022/09/24 04:36:22;;;;;;;2.35;1.85;;;20.30;73.30;;;;;;5111429;28;20024;-70
2022/09/24 04:38:49;;;;;;;3.08;1.67;;;20.30;73.50;;;;;;5112773;28;20035;-70
2022/09/24 04:41:15;;;;;;;3.65;1.90;;;20.30;73.40;;;;;;5112554;28;20513;-70
2022/09/24 04:43:41;;;;;;;2.58;1.60;;;20.30;73.50;;;;;;5112772;28;20361;-70
2022/09/24 04:46:08;;;;;;;3.92;1.88;;;20.30;73.60;;;;;;5112231;28;20027;-70
2022/09/24 04:48:35;;;;;;;2.67;1.73;;;20.30;73.60;;;;;;5111238;28;20042;-70
2022/09/24 04:51:02;;;;;;;2.65;1.80;;;20.30;73.70;;;;;;5111304;28;20040;-70
2022/09/24 04:53:27;;;;;;;4.35;1.80;;;20.30;73.70;;;;;;5112493;28;20099;-70
2022/09/24 04:55:53;;;;;;;2.92;1.75;;;20.30;73.70;;;;;;5112417;28;20447;-70
2022/09/24 04:58:19;;;;;;;4.10;1.60;;;20.30;73.60;;;;;;5112274;28;20076;-70
2022/09/24 05:00:44;;;;;;;3.25;1.58;;;20.30;73.60;;;;;;5112294;28;20028;-70
2022/09/24 05:03:10;;;;;;;4.63;1.83;;;20.30;73.50;;;;;;5112517;28;20028;-70
2022/09/24 05:05:35;;;;;;;6.50;2.17;;;20.30;73.60;;;;;;5113492;28;20376;-69
2022/09/24 05:08:01;;;;;;;4.38;2.05;;;20.30;73.60;;;;;;5116620;28;20027;-69
2022/09/24 05:10:28;;;;;;;3.92;2.15;;;20.30;73.60;;;;;;5115150;28;20015;-69
2022/09/24 05:12:53;;;;;;;4.47;2.17;;;20.30;73.60;;;;;;5116549;28;20043;-69
2022/09/24 05:15:19;;;;;;;3.63;1.48;;;20.30;73.70;;;;;;5107563;28;20403;-69
2022/09/24 05:17:45;;;;;;;2.72;1.85;;;20.30;73.60;;;;;;5075981;28;20028;-69
2022/09/24 05:20:11;;;;;;;2.58;1.50;;;20.30;73.70;;;;;;5075749;28;20507;-70
2022/09/24 05:22:43;;;;;;;4.15;1.65;;;20.30;73.60;;;;;;5081056;28;20019;-70
2022/09/24 05:25:10;;;;;;;4.82;2.00;;;20.30;73.60;;;;;;5116176;28;20024;-70
2022/09/24 05:27:36;;;;;;;3.00;1.88;;;20.30;73.40;;;;;;5116330;27;20471;-69
2022/09/24 05:30:02;;;;;;;5.15;1.73;;;20.30;73.60;;;;;;5102926;28;20024;-69
2022/09/24 05:32:28;;;;;;;4.80;1.75;;;20.30;73.60;;;;;;5087267;28;20020;-69
2022/09/24 05:34:53;;;;;;;5.22;1.60;;;20.30;73.90;;;;;;5093008;28;20024;-70
2022/09/24 05:37:19;;;;;;;5.28;1.40;;;20.30;73.70;;;;;;5092045;28;20442;-70
2022/09/24 05:39:45;;;;;;;6.40;2.28;;;20.30;73.70;;;;;;5091744;28;20154;-70
2022/09/24 05:42:13;;;;;;;2.33;1.48;;;20.30;73.70;;;;;;5092461;28;20035;-70
2022/09/24 05:44:39;;;;;;;3.20;1.40;;;20.30;73.20;;;;;;5091403;28;20442;-70
2022/09/24 05:47:05;;;;;;;2.42;1.40;;;20.20;71.90;;;;;;5091654;28;20043;-70
2022/09/24 05:49:30;;;;;;;3.92;1.58;;;20.20;72.50;;;;;;5092709;28;20419;-70
2022/09/24 05:51:56;;;;;;;3.95;1.40;;;20.20;72.40;;;;;;5092674;28;20032;-70
2022/09/24 05:54:22;;;;;;;4.47;1.40;;;20.20;72.70;;;;;;5073779;28;20583;-70
2022/09/24 05:56:48;;;;;;;2.90;1.60;;;20.20;72.70;;;;;;5091636;28;20476;-70
2022/09/24 05:59:14;;;;;;;1.98;1.40;;;20.20;72.50;;;;;;5090651;28;20024;-70
2022/09/24 06:01:40;;;;;;;2.80;1.65;;;20.20;72.50;;;;;;5092521;28;20428;-70
2022/09/24 06:04:05;;;;;;;2.60;1.63;;;20.20;72.60;;;;;;5092544;28;20012;-70
2022/09/24 06:06:31;;;;;;;7.35;1.75;;;20.20;72.60;;;;;;5091301;28;20051;-70
2022/09/24 06:08:57;;;;;;;3.58;1.95;;;20.30;72.70;;;;;;5092129;28;20023;-70
2022/09/24 06:11:22;;;;;;;5.82;1.48;;;20.20;72.80;;;;;;5092361;28;20032;-70
2022/09/24 06:13:49;;;;;;;4.18;1.30;;;20.20;72.80;;;;;;5090917;28;20024;-70
2022/09/24 06:16:15;;;;;;;3.72;1.55;;;20.20;72.90;;;;;;5086289;28;20054;-70
2022/09/24 06:18:41;;;;;;;1.75;1.30;;;20.20;73.00;;;;;;5090891;28;20020;-70
2022/09/24 06:21:09;;;;;;;3.70;1.45;;;20.20;72.80;;;;;;5092186;28;20024;-70
2022/09/24 06:23:35;;;;;;;2.88;1.38;;;20.30;72.90;;;;;;5090667;28;20446;-70
2022/09/24 06:26:00;;;;;;;2.30;1.40;;;20.30;72.80;;;;;;5090882;28;20073;-70
2022/09/24 06:28:26;;;;;;;3.08;1.50;;;20.20;72.80;;;;;;5091735;28;20071;-70
2022/09/24 06:30:52;;;;;;;1.88;1.35;;;20.20;73.00;;;;;;5090681;28;20032;-70
2022/09/24 06:33:19;;;;;;;3.40;1.70;;;20.20;73.00;;;;;;5091968;28;20012;-70
2022/09/24 06:35:44;;;;;;;2.88;1.33;;;20.20;73.00;;;;;;5090672;28;20049;-69
2022/09/24 06:38:11;;;;;;;3.22;1.50;;;20.20;73.10;;;;;;5091925;28;20102;-70
2022/09/24 06:40:37;;;;;;;2.10;1.35;;;20.20;73.10;;;;;;5072243;28;20025;-70
2022/09/24 06:43:05;;;;;;;2.75;1.20;;;20.20;73.10;;;;;;5090502;28;20012;-70
2022/09/24 06:45:31;;;;;;;2.85;1.45;;;20.20;73.00;;;;;;5091630;28;20099;-70
2022/09/24 06:47:57;;;;;;;2.85;1.50;;;20.20;73.10;;;;;;5091726;28;20645;-70
2022/09/24 06:50:24;;;;;;;4.10;1.70;;;20.20;73.00;;;;;;5091340;28;20044;-70
2022/09/24 06:52:50;;;;;;;2.67;1.15;;;20.20;73.10;;;;;;5074147;28;20027;-70
2022/09/24 06:55:16;;;;;;;3.78;1.40;;;20.20;73.10;;;;;;5088551;28;20028;-70
2022/09/24 06:57:41;;;;;;;2.20;1.42;;;20.20;73.20;;;;;;5088157;28;20025;-70
2022/09/24 07:00:08;;;;;;;2.63;1.35;;;20.20;73.20;;;;;;5091825;28;20130;-70
2022/09/24 07:02:33;;;;;;;2.42;1.38;;;20.20;73.20;;;;;;5090565;28;20043;-70
2022/09/24 07:04:59;;;;;;;3.70;1.80;;;20.20;73.20;;;;;;5088655;28;20424;-70
2022/09/24 07:07:33;;;;;;;1.50;1.10;;;20.20;73.00;;;;;;5086571;28;20012;-70
2022/09/24 07:10:04;;;;;;;2.38;1.33;;;20.20;73.00;;;;;;5086277;28;20056;-70
2022/09/24 07:12:30;;;;;;;1.88;1.27;;;20.20;73.00;;;;;;5087871;28;20019;-70
2022/09/24 07:14:56;;;;;;;3.45;1.65;;;20.20;73.10;;;;;;5088809;28;20029;-70
2022/09/24 07:17:25;;;;;;;3.47;1.83;;;20.20;73.10;;;;;;5073500;28;20387;-70
2022/09/24 07:19:51;;;;;;;4.63;1.35;;;20.20;73.20;;;;;;5091423;28;20020;-70
2022/09/24 07:22:17;;;;;;;2.70;1.20;;;20.20;73.20;;;;;;5091864;28;20390;-70
2022/09/24 07:24:43;;;;;;;2.35;1.52;;;20.20;73.40;;;;;;5088353;28;20027;-70
2022/09/24 07:27:08;;;;;;;1.67;1.35;;;20.20;73.30;;;;;;5089064;28;20533;-70
2022/09/24 07:29:34;;;;;;;1.40;1.20;;;20.20;73.10;;;;;;5086283;28;20479;-70
2022/09/24 07:32:00;;;;;;;2.75;1.27;;;20.20;73.10;;;;;;5069066;28;20023;-70
2022/09/24 07:34:26;;;;;;;1.23;0.93;;;20.20;73.10;;;;;;5090937;28;20438;-70
2022/09/24 07:36:54;;;;;;;1.95;1.10;;;20.20;72.30;;;;;;5089743;28;20024;-71
2022/09/24 07:39:20;;;;;;;2.22;1.00;;;20.20;70.90;;;;;;5091053;28;20024;-70
2022/09/24 07:41:46;;;;;;;3.00;1.13;;;20.10;70.70;;;;;;5085934;28;20438;-71
2022/09/24 07:44:11;;;;;;;2.03;1.08;;;20.10;71.00;;;;;;5088619;28;20472;-71
2022/09/24 07:46:37;;;;;;;1.15;1.05;;;20.00;71.00;;;;;;5088466;28;20016;-71
2022/09/24 07:49:02;;;;;;;1.25;0.93;;;20.00;71.20;;;;;;5088023;28;20068;-71
2022/09/24 07:51:28;;;;;;;1.77;1.15;;;20.00;71.20;;;;;;5087652;28;20036;-71
2022/09/24 07:53:55;;;;;;;1.95;1.00;;;20.00;71.20;;;;;;5089306;28;20027;-71
2022/09/24 07:56:21;;;;;;;2.65;1.05;;;20.00;71.20;;;;;;5089190;28;20020;-70
2022/09/24 07:58:48;;;;;;;1.45;1.08;;;20.00;71.20;;;;;;5086009;28;20024;-70
2022/09/24 08:01:16;;;;;;;3.05;0.88;;;20.00;71.10;;;;;;5088564;28;20020;-70
2022/09/24 08:03:47;;;;;;;1.40;0.80;;;20.00;71.10;;;;;;5086979;28;20020;-70
2022/09/24 08:06:13;;;;;;;2.35;0.90;;;20.00;71.10;;;;;;5089556;28;20024;-70
2022/09/24 08:08:39;;;;;;;3.30;0.80;;;20.00;71.10;;;;;;5086852;28;20047;-70
2022/09/24 08:11:05;;;;;;;0.95;0.82;;;20.00;71.10;;;;;;5070218;28;20091;-71
2022/09/24 08:13:31;;;;;;;1.23;1.10;;;20.00;71.00;;;;;;5084915;28;20019;-72
2022/09/24 08:16:00;;;;;;;1.75;0.90;;;20.00;71.10;;;;;;5083262;28;20020;-71
2022/09/24 08:18:26;;;;;;;2.65;1.20;;;20.00;71.10;;;;;;5070141;28;20099;-71
2022/09/24 08:20:52;;;;;;;1.75;0.98;;;19.90;70.90;;;;;;5088340;28;20009;-72
2022/09/24 08:23:17;;;;;;;1.25;1.00;;;19.90;71.00;;;;;;5090345;28;20392;-72
2022/09/24 08:25:43;;;;;;;1.50;0.77;;;19.90;71.00;;;;;;5089687;28;20514;-72
2022/09/24 08:28:12;;;;;;;2.25;1.10;;;19.90;71.10;;;;;;5086052;28;20409;-72
2022/09/24 08:30:40;;;;;;;1.33;1.05;;;19.90;71.10;;;;;;5086634;28;20028;-72
2022/09/24 08:33:06;;;;;;;1.50;0.90;;;19.90;71.10;;;;;;5088538;28;20031;-71
2022/09/24 08:35:33;;;;;;;2.50;0.93;;;19.90;72.20;;;;;;5088120;28;20024;-70
2022/09/24 08:38:02;;;;;;;2.33;1.20;;;19.90;70.70;;;;;;5087680;28;20028;-71
2022/09/24 08:41:17;;;;;;;2.75;1.10;;;19.80;70.40;;;;;;5088280;28;20028;-74
2022/09/24 08:43:52;;;;;;;2.97;1.48;;;19.80;70.40;;;;;;5027034;28;20033;-73
2022/09/24 08:49:10;;;;;;;6.80;1.27;;;19.80;70.00;;;;;;5013412;28;20057;-71
2022/09/24 08:51:50;;;;;;;4.88;1.23;;;19.80;70.00;;;;;;5011057;28;20547;-72
2022/09/24 08:54:15;;;;;;;5.75;1.50;;;19.70;69.90;;;;;;5009943;28;20041;-71
2022/09/24 08:56:43;;;;;;;8.68;1.60;;;19.70;69.80;;;;;;5009606;28;20033;-71
2022/09/24 08:59:22;;;;;;;2.10;0.95;;;19.70;69.70;;;;;;5009262;28;20037;-71
2022/09/24 09:01:54;;;;;;;6.28;1.73;;;19.70;69.70;;;;;;5025388;28;20049;-71
2022/09/24 09:04:19;;;;;;;6.55;1.35;;;19.70;69.90;;;;;;5027472;28;20030;-71
2022/09/24 09:06:57;;;;;;;3.67;1.17;;;19.70;70.00;;;;;;5021111;28;20108;-71
2022/09/24 09:09:37;;;;;;;4.72;1.40;;;19.80;70.20;;;;;;5025207;28;20025;-71
2022/09/24 09:12:04;;;;;;;5.93;1.60;;;19.70;70.00;;;;;;5012315;28;20529;-71
2022/09/24 09:14:51;;;;;;;5.25;1.40;;;19.70;70.00;;;;;;5008728;28;20057;-70
2022/09/24 09:17:25;;;;;;;4.18;1.30;;;19.70;70.00;;;;;;5025156;28;20165;-71
2022/09/24 09:19:58;;;;;;;2.45;1.27;;;19.70;69.90;;;;;;5054365;28;20089;-71
2022/09/24 09:22:26;;;;;;;3.00;1.30;;;19.70;70.00;;;;;;5071705;28;20039;-71
2022/09/24 09:24:52;;;;;;;4.90;0.95;;;19.70;70.00;;;;;;5088223;28;20433;-71
2022/09/24 09:27:19;;;;;;;4.45;1.10;;;19.70;70.00;;;;;;5087602;28;20020;-71
2022/09/24 09:29:49;;;;;;;4.95;0.98;;;19.70;70.20;;;;;;5083802;28;20373;-71
2022/09/24 09:32:24;;;;;;;3.22;1.52;;;19.70;70.10;;;;;;5089296;28;20028;-71
2022/09/24 09:35:05;;;;;;;3.95;1.17;;;19.70;70.10;;;;;;5091619;28;20491;-71
2022/09/24 09:37:53;;;;;;;2.28;1.25;;;19.60;70.10;;;;;;5090311;28;20020;-71
2022/09/24 09:40:19;;;;;;;2.25;1.15;;;19.60;70.10;;;;;;5076088;28;20020;-72
2022/09/24 09:42:44;;;;;;;4.80;1.42;;;19.60;70.20;;;;;;5091511;28;20047;-71
2022/09/24 09:45:28;;;;;;;4.78;1.50;;;19.60;70.00;;;;;;5089922;28;20020;-72
2022/09/24 09:47:55;;;;;;;3.17;1.38;;;19.60;70.10;;;;;;5089734;28;20024;-73
2022/09/24 09:50:35;;;;;;;4.07;1.40;;;19.60;70.20;;;;;;5089313;28;20527;-72
2022/09/24 09:53:03;;;;;;;2.25;1.20;;;19.60;69.90;;;;;;5093768;28;20061;-72
2022/09/24 09:55:34;;;;;;;2.97;1.15;;;19.60;70.10;;;;;;5094099;28;20501;-72
2022/09/24 09:58:13;;;;;;;4.10;1.10;;;19.60;70.10;;;;;;5077600;28;20035;-72
2022/09/24 10:00:39;;;;;;;3.10;1.00;;;19.60;70.10;;;;;;5093710;28;20028;-73
2022/09/24 10:03:04;;;;;;;3.55;1.20;;;19.50;70.00;;;;;;5093659;28;20480;-73
2022/09/24 10:05:30;;;;;;;3.58;1.13;;;19.50;69.90;;;;;;5094854;28;20556;-73
2022/09/24 10:07:59;;;;;;;7.03;1.45;;;19.50;69.80;;;;;;5076724;28;20031;-73
2022/09/24 10:10:26;;;;;;;3.42;0.90;;;19.50;69.90;;;;;;5093745;28;20024;-73
2022/09/24 10:13:13;;;;;;;3.42;0.80;;;19.50;69.80;;;;;;5093491;28;20082;-73
2022/09/24 10:15:49;;;;;;;3.88;0.95;;;19.50;69.60;;;;;;5087082;28;20037;-74
2022/09/24 10:18:14;;;;;;;5.50;1.23;;;19.50;69.90;;;;;;5073389;28;20544;-73
2022/09/24 10:20:45;;;;;;;4.63;1.10;;;19.50;69.90;;;;;;5073041;28;20103;-73
2022/09/24 10:23:21;;;;;;;4.47;1.05;;;19.50;70.00;;;;;;5090614;28;20468;-73
2022/09/24 10:25:56;;;;;;;2.78;1.05;;;19.50;70.20;;;;;;5113496;28;20034;-73
2022/09/24 10:31:10;;;;;;;5.95;1.10;;;19.50;70.40;;;;;;5114012;28;20031;-73
2022/09/24 10:33:40;;;;;;;1.13;0.90;;;19.50;70.50;;;;;;5097244;28;20026;-73
2022/09/24 10:36:12;;;;;;;2.25;1.00;;;19.50;70.60;;;;;;5096431;28;20016;-73
2022/09/24 10:38:38;;;;;;;1.85;1.02;;;19.50;70.60;;;;;;5113262;28;20399;-71
2022/09/24 10:41:25;;;;;;;1.70;0.88;;;19.50;70.60;;;;;;5096501;28;20028;-71
2022/09/24 10:43:52;;;;;;;3.20;1.00;;;19.50;70.70;;;;;;5114683;28;20049;-70
2022/09/24 10:46:36;;;;;;;3.70;0.90;;;19.50;70.70;;;;;;5114567;28;20023;-71
2022/09/24 10:49:25;;;;;;;2.47;0.90;;;19.50;70.70;;;;;;5114163;28;20024;-71
2022/09/24 10:51:57;;;;;;;2.42;0.80;;;19.50;70.70;;;;;;5113261;28;20490;-72
2022/09/24 10:54:31;;;;;;;2.97;0.95;;;19.50;70.90;;;;;;5114392;27;20043;-72
2022/09/24 10:56:57;;;;;;;1.52;0.75;;;19.50;70.80;;;;;;5113180;28;20050;-72
2022/09/24 10:59:38;;;;;;;2.45;0.90;;;19.50;70.90;;;;;;5096164;28;20085;-72
2022/09/24 11:02:31;;;;;;;2.83;1.00;;;19.50;70.90;;;;;;5113960;28;20487;-72
2022/09/24 11:05:07;;;;;;;2.08;0.90;;;19.50;71.00;;;;;;5113871;28;20011;-72
2022/09/24 11:07:56;;;;;;;0.60;0.60;;;19.50;71.00;;;;;;5096879;28;20111;-72
2022/09/24 11:10:25;;;;;;;1.25;0.70;;;19.50;71.20;;;;;;5112975;28;20091;-72
2022/09/24 11:13:06;;;;;;;3.30;0.70;;;19.50;71.30;;;;;;5112814;28;20088;-72
2022/09/24 11:16:13;;;;;;;1.85;0.88;;;19.50;71.30;;;;;;5084824;28;20074;-73
2022/09/24 11:18:59;;;;;;;3.53;0.98;;;19.50;71.30;;;;;;5072255;28;20498;-72
2022/09/24 11:21:29;;;;;;;1.40;0.70;;;19.50;71.30;;;;;;5072231;28;20037;-72
2022/09/24 11:24:09;;;;;;;6.38;1.17;;;19.50;71.40;;;;;;5100546;28;20051;-72
2022/09/24 11:26:46;;;;;;;1.23;0.80;;;19.50;71.30;;;;;;5112476;28;20027;-72
2022/09/24 11:29:31;;;;;;;3.20;0.70;;;19.50;71.40;;;;;;5113596;28;20064;-72
2022/09/24 11:32:12;;;;;;;1.88;0.85;;;19.50;71.50;;;;;;5113282;28;20050;-72
2022/09/24 11:34:43;;;;;;;1.17;0.73;;;19.50;71.60;;;;;;5112583;28;20061;-69
2022/09/24 11:37:27;;;;;;;8.77;0.70;;;19.50;71.90;;;;;;5095359;28;20111;-69
2022/09/24 11:40:06;;;;;;;1.42;0.77;;;19.60;71.90;;;;;;5113266;28;20127;-69
2022/09/24 11:42:50;;;;;;;4.07;0.60;;;19.60;71.90;;;;;;5112215;28;20498;-69
2022/09/24 11:45:33;;;;;;;46.97;2.33;;;19.60;71.90;;;;;;5113262;28;20030;-69
2022/09/24 11:48:18;;;;;;;107.40;6.35;;;19.60;72.00;;;;;;5112999;28;20544;-69
2022/09/24 11:50:55;;;;;;;106.40;6.68;;;19.60;72.10;;;;;;5113200;28;20051;-69
2022/09/24 11:53:38;;;;;;;78.20;5.55;;;19.60;72.30;;;;;;5113292;28;20027;-69
2022/09/24 11:56:16;;;;;;;98.97;5.15;;;19.60;72.20;;;;;;5095554;28;20522;-69
2022/09/24 11:58:58;;;;;;;87.65;5.75;;;19.60;72.30;;;;;;5112171;28;20027;-69
2022/09/24 12:01:34;;;;;;;98.18;6.45;;;19.60;72.40;;;;;;5096189;28;20067;-69
2022/09/24 12:04:10;;;;;;;92.50;5.20;;;19.60;72.50;;;;;;5094888;28;20414;-70
2022/09/24 12:07:11;;;;;;;70.47;4.97;;;19.60;72.60;;;;;;5113045;28;20027;-69
2022/09/24 12:09:45;;;;;;;96.70;5.90;;;19.60;72.70;;;;;;5096757;28;20030;-68
2022/09/24 12:12:15;;;;;;;91.10;5.55;;;19.60;72.80;;;;;;5095568;28;20032;-69
2022/09/24 12:15:03;;;;;;;74.68;5.35;;;19.60;73.00;;;;;;5093859;28;20426;-69
2022/09/24 12:18:02;;;;;;;89.38;6.78;;;19.60;73.10;;;;;;5072172;28;20515;-69
2022/09/24 12:20:29;;;;;;;54.22;4.68;;;19.60;72.90;;;;;;5029986;28;20497;-69
2022/09/24 12:23:10;;;;;;;73.53;4.07;;;19.60;73.20;;;;;;5025295;28;20029;-69
2022/09/24 12:25:45;;;;;;;52.10;4.15;;;19.60;73.20;;;;;;5038480;28;20104;-69
2022/09/24 12:28:12;;;;;;;72.03;5.53;;;19.60;73.20;;;;;;5020231;28;20392;-69
2022/09/24 12:33:43;;;;;;;51.35;3.70;;;19.60;73.40;;;;;;5042572;28;20063;-69
2022/09/24 12:36:16;;;;;;;59.28;3.80;;;19.60;73.30;;;;;;5036553;28;20033;-69
2022/09/24 12:38:46;;;;;;;41.13;3.55;;;19.60;73.20;;;;;;5037359;28;20063;-69
2022/09/24 12:41:33;;;;;;;46.33;3.78;;;19.60;73.20;;;;;;5036368;28;20032;-69
2022/09/24 12:44:10;;;;;;;50.75;2.92;;;19.60;73.40;;;;;;5038595;28;20029;-69
2022/09/24 12:46:41;;;;;;;47.10;4.25;;;19.60;73.40;;;;;;5069569;28;20032;-69
2022/09/24 12:49:33;;;;;;;50.00;3.75;;;19.60;73.40;;;;;;5069367;28;20419;-68
2022/09/24 12:52:00;;;;;;;35.17;4.28;;;19.60;73.30;;;;;;5052926;28;20033;-69
2022/09/24 12:54:32;;;;;;;29.40;3.75;;;19.60;73.30;;;;;;5053003;28;20028;-69
2022/09/24 12:57:25;;;;;;;33.72;3.08;;;19.60;73.30;;;;;;5103946;28;20046;-69
2022/09/24 12:59:52;;;;;;;40.03;2.88;;;19.60;73.30;;;;;;5111463;28;20487;-69
2022/09/24 13:02:22;;;;;;;36.72;3.75;;;19.60;73.30;;;;;;5110942;28;20445;-69
2022/09/24 13:05:00;;;;;;;31.73;2.85;;;19.60;73.40;;;;;;5112556;28;20012;-70
2022/09/24 13:07:36;;;;;;;41.28;3.05;;;19.60;73.40;;;;;;5112308;28;20031;-70
2022/09/24 13:10:17;;;;;;;37.47;3.50;;;19.60;73.40;;;;;;5099088;28;20034;-69
2022/09/24 13:12:43;;;;;;;35.13;2.80;;;19.60;73.40;;;;;;5075449;28;20106;-69
2022/09/24 13:15:18;;;;;;;27.40;2.88;;;19.60;73.40;;;;;;5107934;28;20136;-69